createdAt,value
2022-08-05T00:00:22.996Z,0.00
2022-08-05T00:01:27.655Z,0.00
2022-08-05T00:02:23.132Z,0.00
2022-08-05T00:03:22.990Z,0.00
2022-08-05T00:04:23.129Z,0.00
2022-08-05T00:06:02.040Z,0.00
2022-08-05T00:06:32.484Z,0.00
2022-08-05T00:07:59.009Z,0.00
2022-08-05T00:08:34.651Z,0.00
2022-08-05T00:09:22.969Z,0.00
2022-08-05T00:10:22.870Z,0.00
2022-08-05T00:11:30.182Z,0.00
2022-08-05T00:12:22.908Z,0.00
2022-08-05T00:13:38.008Z,0.00
2022-08-05T00:14:27.551Z,0.00
2022-08-05T00:15:55.978Z,0.00
2022-08-05T00:16:35.739Z,0.00
2022-08-05T00:17:22.896Z,0.00
2022-08-05T00:18:22.939Z,0.00
2022-08-05T00:19:24.780Z,0.00
2022-08-05T00:20:22.860Z,0.00
2022-08-05T00:21:22.748Z,0.00
2022-08-05T00:22:22.842Z,0.00
2022-08-05T00:23:44.466Z,0.00
2022-08-05T00:24:24.780Z,0.00
2022-08-05T00:25:22.813Z,0.00
2022-08-05T00:26:22.734Z,0.00
2022-08-05T00:27:22.743Z,0.00
2022-08-05T00:28:29.607Z,0.00
2022-08-05T00:29:25.444Z,0.00
2022-08-05T00:30:29.317Z,0.00
2022-08-05T00:31:53.912Z,0.00
2022-08-05T00:32:22.709Z,0.00
2022-08-05T00:34:55.858Z,0.00
2022-08-05T00:35:11.128Z,0.00
2022-08-05T00:35:22.606Z,0.00
2022-08-05T00:37:11.882Z,0.00
2022-08-05T00:37:22.628Z,0.00
2022-08-05T00:38:33.825Z,0.00
2022-08-05T00:39:22.676Z,0.00
2022-08-05T00:40:26.945Z,0.00
2022-08-05T00:41:22.519Z,0.00
2022-08-05T00:42:31.766Z,0.00
2022-08-05T00:43:22.509Z,0.00
2022-08-05T00:44:23.248Z,0.00
2022-08-05T00:45:28.163Z,0.00
2022-08-05T00:46:42.640Z,0.00
2022-08-05T00:47:22.547Z,0.00
2022-08-05T00:48:27.662Z,0.00
2022-08-05T00:49:22.441Z,0.00
2022-08-05T00:50:22.432Z,0.00
2022-08-05T00:51:50.586Z,0.00
2022-08-05T00:52:28.657Z,0.00
2022-08-05T00:53:44.971Z,0.00
2022-08-05T00:54:22.372Z,0.00
2022-08-05T00:55:22.408Z,0.00
2022-08-05T00:56:22.872Z,0.00
2022-08-05T00:57:22.592Z,0.00
2022-08-05T00:58:22.325Z,0.00
2022-08-05T00:59:22.333Z,0.00
2022-08-05T01:00:22.316Z,0.00
2022-08-05T01:01:24.768Z,0.00
2022-08-05T01:02:22.286Z,0.00
2022-08-05T01:03:23.430Z,0.00
2022-08-05T01:04:30.026Z,0.00
2022-08-05T01:05:22.310Z,0.00
2022-08-05T01:06:22.306Z,0.00
2022-08-05T01:07:22.231Z,0.00
2022-08-05T01:08:41.106Z,0.00
2022-08-05T01:09:22.291Z,0.00
2022-08-05T01:10:22.182Z,0.00
2022-08-05T01:11:33.627Z,0.00
2022-08-05T01:12:22.224Z,0.00
2022-08-05T01:13:27.075Z,0.00
2022-08-05T01:14:28.108Z,0.00
2022-08-05T01:15:36.382Z,0.00
2022-08-05T01:16:26.200Z,0.00
2022-08-05T01:17:22.312Z,0.00
2022-08-05T01:18:22.096Z,0.00
2022-08-05T01:19:30.205Z,0.00
2022-08-05T01:20:22.316Z,0.00
2022-08-05T01:21:23.083Z,0.00
2022-08-05T01:22:24.298Z,0.00
2022-08-05T01:23:23.349Z,0.00
2022-08-05T01:24:22.175Z,0.00
2022-08-05T01:25:22.067Z,0.00
2022-08-05T01:26:22.032Z,0.00
2022-08-05T01:27:22.213Z,0.00
2022-08-05T01:28:22.044Z,0.00
2022-08-05T01:29:23.120Z,0.00
2022-08-05T01:30:34.308Z,0.00
2022-08-05T01:31:21.954Z,0.00
2022-08-05T01:32:22.009Z,0.00
2022-08-05T01:33:21.975Z,0.00
2022-08-05T01:34:21.920Z,0.00
2022-08-05T01:35:51.679Z,0.00
2022-08-05T01:36:28.124Z,0.00
2022-08-05T01:37:25.139Z,0.00
2022-08-05T01:38:27.228Z,0.00
2022-08-05T01:39:36.178Z,0.00
2022-08-05T01:40:21.871Z,0.00
2022-08-05T01:41:22.115Z,0.00
2022-08-05T01:42:21.889Z,0.00
2022-08-05T01:43:22.004Z,0.00
2022-08-05T01:44:21.860Z,0.00
2022-08-05T01:45:21.870Z,0.00
2022-08-05T01:46:43.073Z,0.00
2022-08-05T01:47:22.215Z,0.00
2022-08-05T01:48:21.833Z,0.00
2022-08-05T01:49:23.877Z,0.00
2022-08-05T01:50:28.698Z,0.00
2022-08-05T01:51:21.764Z,0.00
2022-08-05T01:52:21.708Z,0.00
2022-08-05T01:53:54.387Z,0.00
2022-08-05T01:54:23.691Z,0.00
2022-08-05T01:55:21.764Z,0.00
2022-08-05T01:58:09.880Z,0.00
2022-08-05T01:58:40.944Z,0.00
2022-08-05T01:58:50.394Z,0.00
2022-08-05T01:59:28.987Z,0.00
2022-08-05T02:00:30.297Z,0.00
2022-08-05T02:01:29.013Z,0.00
2022-08-05T02:02:29.017Z,0.00
2022-08-05T02:03:33.967Z,0.00
2022-08-05T02:04:28.936Z,0.00
2022-08-05T02:05:28.910Z,0.00
2022-08-05T02:06:37.865Z,0.00
2022-08-05T02:07:30.468Z,0.00
2022-08-05T02:08:31.094Z,0.00
2022-08-05T02:09:28.862Z,0.00
2022-08-05T02:10:28.919Z,0.00
2022-08-05T02:11:33.303Z,0.00
2022-08-05T02:12:28.862Z,0.00
2022-08-05T02:13:28.888Z,0.00
2022-08-05T02:14:28.818Z,0.00
2022-08-05T02:15:33.281Z,0.00
2022-08-05T02:16:28.802Z,0.00
2022-08-05T02:18:28.163Z,0.00
2022-08-05T02:18:38.253Z,0.00
2022-08-05T02:19:28.821Z,0.00
2022-08-05T02:20:28.744Z,0.00
2022-08-05T02:21:28.735Z,0.00
2022-08-05T02:22:28.747Z,0.00
2022-08-05T02:23:28.694Z,0.00
2022-08-05T02:24:28.740Z,0.00
2022-08-05T02:25:33.024Z,0.00
2022-08-05T02:26:28.660Z,0.00
2022-08-05T02:27:29.733Z,0.00
2022-08-05T02:28:31.281Z,0.00
2022-08-05T02:29:59.871Z,0.00
2022-08-05T02:30:28.652Z,0.00
2022-08-05T02:31:28.640Z,0.00
2022-08-05T02:32:29.381Z,0.00
2022-08-05T02:33:36.162Z,0.00
2022-08-05T02:34:28.570Z,0.00
2022-08-05T02:35:33.202Z,0.00
2022-08-05T02:36:31.424Z,0.00
2022-08-05T02:37:28.554Z,0.00
2022-08-05T02:38:34.991Z,0.00
2022-08-05T02:39:28.579Z,0.00
2022-08-05T02:40:28.560Z,0.00
2022-08-05T02:41:36.251Z,0.00
2022-08-05T02:42:31.955Z,0.00
2022-08-05T02:43:28.565Z,0.00
2022-08-05T02:44:28.507Z,0.00
2022-08-05T02:45:28.679Z,0.00
2022-08-05T02:46:28.453Z,0.00
2022-08-05T02:47:58.680Z,0.00
2022-08-05T02:48:29.507Z,0.00
2022-08-05T02:49:36.085Z,0.00
2022-08-05T02:50:28.915Z,0.00
2022-08-05T02:52:03.703Z,0.00
2022-08-05T02:52:29.436Z,0.00
2022-08-05T02:53:28.535Z,0.00
2022-08-05T02:54:35.881Z,0.00
2022-08-05T02:55:53.802Z,0.00
2022-08-05T02:56:28.427Z,0.00
2022-08-05T02:58:20.445Z,0.00
2022-08-05T02:58:28.959Z,0.00
2022-08-05T02:59:28.339Z,0.00
2022-08-05T03:00:28.332Z,0.00
2022-08-05T03:01:28.381Z,0.00
2022-08-05T03:02:28.274Z,0.00
2022-08-05T03:03:28.264Z,0.00
2022-08-05T03:04:28.279Z,0.00
2022-08-05T03:06:57.016Z,0.00
2022-08-05T03:07:04.068Z,0.00
2022-08-05T03:08:00.810Z,0.00
2022-08-05T03:08:30.029Z,0.00
2022-08-05T03:09:37.902Z,0.00
2022-08-05T03:10:28.182Z,0.00
2022-08-05T03:11:55.202Z,0.00
2022-08-05T03:12:28.187Z,0.00
2022-08-05T03:13:28.156Z,0.00
2022-08-05T03:14:28.254Z,0.00
2022-08-05T03:15:28.142Z,0.00
2022-08-05T03:16:28.164Z,0.00
2022-08-05T03:17:28.153Z,0.00
2022-08-05T03:18:30.037Z,0.00
2022-08-05T03:19:33.728Z,0.00
2022-08-05T03:20:28.177Z,0.00
2022-08-05T03:21:28.911Z,0.00
2022-08-05T03:22:32.251Z,0.00
2022-08-05T03:23:28.072Z,0.00
2022-08-05T03:24:29.807Z,0.00
2022-08-05T03:25:32.933Z,0.00
2022-08-05T03:26:31.866Z,0.00
2022-08-05T03:27:29.815Z,0.00
2022-08-05T03:28:28.002Z,0.00
2022-08-05T03:29:46.029Z,0.00
2022-08-05T03:30:30.218Z,0.00
2022-08-05T03:31:56.070Z,0.00
2022-08-05T03:32:31.080Z,0.00
2022-08-05T03:33:49.243Z,0.00
2022-08-05T03:34:27.911Z,0.00
2022-08-05T03:35:27.979Z,0.00
2022-08-05T03:36:30.193Z,0.00
2022-08-05T03:37:28.000Z,0.00
2022-08-05T03:38:33.210Z,0.00
2022-08-05T03:39:28.014Z,0.00
2022-08-05T03:40:32.094Z,0.00
2022-08-05T03:41:33.041Z,0.00
2022-08-05T03:42:29.186Z,4.00
2022-08-05T03:44:09.501Z,4.00
2022-08-05T03:44:28.997Z,4.00
2022-08-05T03:45:27.853Z,4.00
2022-08-05T03:46:29.786Z,0.00
2022-08-05T03:47:30.595Z,0.00
2022-08-05T03:48:29.032Z,0.00
2022-08-05T03:49:51.037Z,0.00
2022-08-05T03:50:27.749Z,4.00
2022-08-05T03:52:36.872Z,4.00
2022-08-05T03:56:09.453Z,4.00
2022-08-05T03:56:27.928Z,4.00
2022-08-05T03:56:37.856Z,4.00
2022-08-05T03:57:35.013Z,8.00
2022-08-05T03:58:28.932Z,4.00
2022-08-05T03:59:29.203Z,4.00
2022-08-05T04:00:26.876Z,8.00
2022-08-05T04:01:26.886Z,8.00
2022-08-05T04:02:38.327Z,4.00
2022-08-05T04:03:29.241Z,8.00
2022-08-05T04:04:27.470Z,8.00
2022-08-05T04:05:27.834Z,8.00
2022-08-05T04:06:26.726Z,12.00
2022-08-05T04:07:26.843Z,12.00
2022-08-05T04:08:30.157Z,12.00
2022-08-05T04:09:26.880Z,12.00
2022-08-05T04:10:27.822Z,16.00
2022-08-05T04:11:47.129Z,12.00
2022-08-05T04:12:26.667Z,12.00
2022-08-05T04:13:49.361Z,16.00
2022-08-05T04:14:30.571Z,12.00
2022-08-05T04:15:26.651Z,16.00
2022-08-05T04:16:32.344Z,20.00
2022-08-05T04:17:26.673Z,20.00
2022-08-05T04:18:26.642Z,24.00
2022-08-05T04:19:26.660Z,28.00
2022-08-05T04:20:26.571Z,32.00
2022-08-05T04:22:10.402Z,32.00
2022-08-05T04:22:26.657Z,28.00
2022-08-05T04:23:57.345Z,28.00
2022-08-05T04:24:27.612Z,20.00
2022-08-05T04:25:56.984Z,16.00
2022-08-05T04:26:26.619Z,20.00
2022-08-05T04:27:42.107Z,20.00
2022-08-05T04:28:30.629Z,24.00
2022-08-05T04:29:27.282Z,24.00
2022-08-05T04:30:26.715Z,28.00
2022-08-05T04:31:27.623Z,36.00
2022-08-05T04:32:31.144Z,40.00
2022-08-05T04:33:54.633Z,40.00
2022-08-05T04:34:32.541Z,36.00
2022-08-05T04:35:26.444Z,32.00
2022-08-05T04:36:49.603Z,28.00
2022-08-05T04:38:01.061Z,28.00
2022-08-05T04:38:39.724Z,28.00
2022-08-05T04:39:27.528Z,24.00
2022-08-05T04:40:26.408Z,24.00
2022-08-05T04:41:34.090Z,24.00
2022-08-05T04:42:26.380Z,20.00
2022-08-05T04:43:26.307Z,20.00
2022-08-05T04:44:29.250Z,20.00
2022-08-05T04:45:47.817Z,24.00
2022-08-05T04:46:28.415Z,24.00
2022-08-05T04:47:26.553Z,32.00
2022-08-05T04:48:28.102Z,32.00
2022-08-05T04:49:38.807Z,36.00
2022-08-05T04:50:34.505Z,36.00
2022-08-05T04:51:26.264Z,44.00
2022-08-05T04:52:27.481Z,44.00
2022-08-05T04:53:26.212Z,48.00
2022-08-05T04:54:26.225Z,52.00
2022-08-05T04:56:15.390Z,60.00
2022-08-05T04:56:40.222Z,68.00
2022-08-05T04:57:28.543Z,72.00
2022-08-05T04:58:26.230Z,76.00
2022-08-05T04:59:38.948Z,76.00
2022-08-05T05:00:26.174Z,80.00
2022-08-05T05:02:05.676Z,84.00
2022-08-05T05:02:37.083Z,92.00
2022-08-05T05:03:26.106Z,104.00
2022-08-05T05:04:26.167Z,120.00
2022-08-05T05:05:28.762Z,132.00
2022-08-05T05:06:36.637Z,140.00
2022-08-05T05:07:29.371Z,140.00
2022-08-05T05:08:26.752Z,140.00
2022-08-05T05:09:26.025Z,144.00
2022-08-05T05:10:26.102Z,156.00
2022-08-05T05:11:41.512Z,168.00
2022-08-05T05:12:27.482Z,172.00
2022-08-05T05:13:26.187Z,176.00
2022-08-05T05:14:31.718Z,172.00
2022-08-05T05:15:57.607Z,160.00
2022-08-05T05:16:30.456Z,152.00
2022-08-05T05:17:56.988Z,164.00
2022-08-05T05:18:31.472Z,184.00
2022-08-05T05:19:27.305Z,220.00
2022-08-05T05:20:28.781Z,260.00
2022-08-05T05:21:27.184Z,296.00
2022-08-05T05:22:26.801Z,336.00
2022-08-05T05:23:25.907Z,320.00
2022-08-05T05:24:56.442Z,336.00
2022-08-05T05:25:40.264Z,372.00
2022-08-05T05:26:28.619Z,408.00
2022-08-05T05:27:41.541Z,392.00
2022-08-05T05:28:25.796Z,336.00
2022-08-05T05:30:03.410Z,264.00
2022-08-05T05:30:31.008Z,196.00
2022-08-05T05:31:25.850Z,144.00
2022-08-05T05:32:24.771Z,108.00
2022-08-05T05:33:25.792Z,80.00
2022-08-05T05:34:26.785Z,68.00
2022-08-05T05:35:25.739Z,64.00
2022-08-05T05:36:28.797Z,68.00
2022-08-05T05:37:29.268Z,72.00
2022-08-05T05:38:27.523Z,76.00
2022-08-05T05:39:25.918Z,80.00
2022-08-05T05:40:26.142Z,84.00
2022-08-05T05:41:25.781Z,76.00
2022-08-05T05:42:25.698Z,64.00
2022-08-05T05:43:54.169Z,56.00
2022-08-05T05:44:36.455Z,60.00
2022-08-05T05:45:25.636Z,68.00
2022-08-05T05:46:25.613Z,80.00
2022-08-05T05:47:30.220Z,88.00
2022-08-05T05:48:27.783Z,104.00
2022-08-05T05:49:25.582Z,112.00
2022-08-05T05:50:25.797Z,124.00
2022-08-05T05:51:25.883Z,132.00
2022-08-05T05:52:30.035Z,152.00
2022-08-05T05:53:25.563Z,172.00
2022-08-05T05:54:50.659Z,192.00
2022-08-05T05:55:25.526Z,204.00
2022-08-05T05:56:26.218Z,224.00
2022-08-05T05:57:25.633Z,248.00
2022-08-05T05:58:31.826Z,280.00
2022-08-05T05:59:25.495Z,324.00
2022-08-05T06:00:31.617Z,360.00
2022-08-05T06:01:25.480Z,392.00
2022-08-05T06:02:32.821Z,404.00
2022-08-05T06:03:40.277Z,396.00
2022-08-05T06:04:25.621Z,376.00
2022-08-05T06:05:25.407Z,364.00
2022-08-05T06:06:28.055Z,340.00
2022-08-05T06:07:42.176Z,332.00
2022-08-05T06:08:31.839Z,332.00
2022-08-05T06:09:52.707Z,340.00
2022-08-05T06:10:25.338Z,348.00
2022-08-05T06:11:25.325Z,356.00
2022-08-05T06:12:27.183Z,372.00
2022-08-05T06:13:25.405Z,384.00
2022-08-05T06:14:25.279Z,404.00
2022-08-05T06:15:25.295Z,424.00
2022-08-05T06:16:37.133Z,452.00
2022-08-05T06:17:30.829Z,468.00
2022-08-05T06:18:31.094Z,476.00
2022-08-05T06:19:35.106Z,492.00
2022-08-05T06:20:25.248Z,504.00
2022-08-05T06:21:37.603Z,504.00
2022-08-05T06:22:25.262Z,488.00
2022-08-05T06:23:25.202Z,468.00
2022-08-05T06:24:25.919Z,460.00
2022-08-05T06:26:12.530Z,464.00
2022-08-05T06:26:25.237Z,456.00
2022-08-05T06:28:10.541Z,448.00
2022-08-05T06:28:27.145Z,440.00
2022-08-05T06:29:49.436Z,428.00
2022-08-05T06:30:25.235Z,416.00
2022-08-05T06:31:30.539Z,396.00
2022-08-05T06:32:28.830Z,372.00
2022-08-05T06:33:33.347Z,368.00
2022-08-05T06:34:27.727Z,372.00
2022-08-05T06:36:07.297Z,392.00
2022-08-05T06:36:26.033Z,408.00
2022-08-05T06:37:56.407Z,432.00
2022-08-05T06:38:36.697Z,432.00
2022-08-05T06:39:27.779Z,420.00
2022-08-05T06:40:28.053Z,404.00
2022-08-05T06:41:25.032Z,388.00
2022-08-05T06:42:25.308Z,364.00
2022-08-05T06:43:58.727Z,348.00
2022-08-05T06:44:24.987Z,340.00
2022-08-05T06:46:03.369Z,328.00
2022-08-05T06:46:30.363Z,328.00
2022-08-05T06:48:11.332Z,324.00
2022-08-05T06:48:55.703Z,328.00
2022-08-05T06:50:00.310Z,320.00
2022-08-05T06:50:24.961Z,300.00
2022-08-05T06:51:29.736Z,276.00
2022-08-05T06:52:38.181Z,256.00
2022-08-05T06:53:28.310Z,256.00
2022-08-05T06:54:25.869Z,260.00
2022-08-05T06:55:24.834Z,268.00
2022-08-05T06:56:26.646Z,280.00
2022-08-05T06:57:57.131Z,292.00
2022-08-05T06:58:34.882Z,324.00
2022-08-05T06:59:24.809Z,372.00
2022-08-05T07:00:25.530Z,408.00
2022-08-05T07:01:27.727Z,408.00
2022-08-05T07:02:24.800Z,384.00
2022-08-05T07:03:27.945Z,344.00
2022-08-05T07:04:24.767Z,316.00
2022-08-05T07:05:36.964Z,296.00
2022-08-05T07:06:24.702Z,268.00
2022-08-05T07:07:35.637Z,280.00
2022-08-05T07:08:25.156Z,328.00
2022-08-05T07:09:24.960Z,364.00
2022-08-05T07:10:30.462Z,372.00
2022-08-05T07:11:25.180Z,364.00
2022-08-05T07:12:24.660Z,340.00
2022-08-05T07:13:57.073Z,320.00
2022-08-05T07:14:29.293Z,332.00
2022-08-05T07:15:34.662Z,352.00
2022-08-05T07:18:01.766Z,388.00
2022-08-05T07:18:26.975Z,468.00
2022-08-05T07:18:34.204Z,560.00
2022-08-05T07:20:05.793Z,608.00
2022-08-05T07:20:38.728Z,612.00
2022-08-05T07:21:25.730Z,572.00
2022-08-05T07:22:28.540Z,520.00
2022-08-05T07:23:26.537Z,472.00
2022-08-05T07:24:24.782Z,412.00
2022-08-05T07:25:54.744Z,352.00
2022-08-05T07:26:25.622Z,312.00
2022-08-05T07:27:27.444Z,272.00
2022-08-05T07:28:24.672Z,236.00
2022-08-05T07:29:25.343Z,216.00
2022-08-05T07:30:32.901Z,196.00
2022-08-05T07:31:41.084Z,196.00
2022-08-05T07:32:26.261Z,200.00
2022-08-05T07:33:36.671Z,224.00
2022-08-05T07:34:28.543Z,272.00
2022-08-05T07:36:04.064Z,348.00
2022-08-05T07:36:24.659Z,468.00
2022-08-05T07:37:24.914Z,620.00
2022-08-05T07:38:32.862Z,788.00
2022-08-05T07:40:04.770Z,956.00
2022-08-05T07:40:36.559Z,1060.00
2022-08-05T07:42:13.175Z,1108.00
2022-08-05T07:42:33.372Z,1092.00
2022-08-05T07:43:24.538Z,1060.00
2022-08-05T07:44:24.536Z,1016.00
2022-08-05T07:45:57.852Z,960.00
2022-08-05T07:46:26.034Z,896.00
2022-08-05T07:47:25.798Z,888.00
2022-08-05T07:49:01.942Z,908.00
2022-08-05T07:49:24.738Z,1024.00
2022-08-05T07:50:28.911Z,1180.00
2022-08-05T07:51:37.230Z,1188.00
2022-08-05T07:52:24.529Z,1168.00
2022-08-05T07:53:26.924Z,1108.00
2022-08-05T07:54:26.633Z,1028.00
2022-08-05T07:56:05.535Z,1004.00
2022-08-05T07:57:01.662Z,948.00
2022-08-05T07:57:56.248Z,872.00
2022-08-05T07:58:54.929Z,828.00
2022-08-05T07:59:38.342Z,804.00
2022-08-05T08:00:24.335Z,780.00
2022-08-05T08:01:24.384Z,716.00
2022-08-05T08:02:26.784Z,600.00
2022-08-05T08:03:24.341Z,532.00
2022-08-05T08:04:38.095Z,468.00
2022-08-05T08:05:24.251Z,428.00
2022-08-05T08:06:28.133Z,396.00
2022-08-05T08:07:24.705Z,412.00
2022-08-05T08:08:24.235Z,392.00
2022-08-05T08:09:24.229Z,384.00
2022-08-05T08:10:24.254Z,400.00
2022-08-05T08:11:27.803Z,456.00
2022-08-05T08:12:27.346Z,536.00
2022-08-05T08:13:29.327Z,628.00
2022-08-05T08:14:24.196Z,804.00
2022-08-05T08:15:37.324Z,1008.00
2022-08-05T08:16:50.831Z,1128.00
2022-08-05T08:17:24.491Z,1140.00
2022-08-05T08:18:24.188Z,1100.00
2022-08-05T08:20:10.822Z,1060.00
2022-08-05T08:21:02.179Z,1068.00
2022-08-05T08:21:24.097Z,1088.00
2022-08-05T08:22:24.209Z,1124.00
2022-08-05T08:24:02.580Z,1176.00
2022-08-05T08:24:37.112Z,1180.00
2022-08-05T08:25:27.030Z,1116.00
2022-08-05T08:26:27.146Z,1008.00
2022-08-05T08:27:40.049Z,904.00
2022-08-05T08:28:37.367Z,856.00
2022-08-05T08:29:45.497Z,784.00
2022-08-05T08:30:30.028Z,740.00
2022-08-05T08:31:24.058Z,720.00
2022-08-05T08:32:28.090Z,700.00
2022-08-05T08:33:24.136Z,668.00
2022-08-05T08:34:29.877Z,640.00
2022-08-05T08:35:26.582Z,628.00
2022-08-05T08:36:38.939Z,616.00
2022-08-05T08:37:27.880Z,664.00
2022-08-05T08:38:35.132Z,652.00
2022-08-05T08:39:24.004Z,648.00
2022-08-05T08:40:23.922Z,628.00
2022-08-05T08:41:26.239Z,660.00
2022-08-05T08:42:33.859Z,692.00
2022-08-05T08:45:16.543Z,668.00
2022-08-05T08:45:29.786Z,656.00
2022-08-05T08:45:35.703Z,680.00
2022-08-05T08:46:36.476Z,732.00
2022-08-05T08:48:05.917Z,796.00
2022-08-05T08:48:59.706Z,836.00
2022-08-05T08:50:05.801Z,864.00
2022-08-05T08:51:03.094Z,884.00
2022-08-05T08:52:03.525Z,884.00
2022-08-05T08:52:35.592Z,880.00
2022-08-05T08:53:35.598Z,840.00
2022-08-05T08:54:36.228Z,800.00
2022-08-05T08:56:03.626Z,776.00
2022-08-05T08:56:35.575Z,784.00
2022-08-05T08:57:42.292Z,816.00
2022-08-05T08:58:44.037Z,856.00
2022-08-05T08:59:35.513Z,916.00
2022-08-05T09:00:35.560Z,940.00
2022-08-05T09:01:35.512Z,1000.00
2022-08-05T09:02:35.478Z,1088.00
2022-08-05T09:03:40.435Z,1112.00
2022-08-05T09:04:35.448Z,1144.00
2022-08-05T09:05:38.846Z,1088.00
2022-08-05T09:06:36.169Z,1048.00
2022-08-05T09:07:40.037Z,964.00
2022-08-05T09:08:35.410Z,932.00
2022-08-05T09:09:35.876Z,980.00
2022-08-05T09:10:35.383Z,904.00
2022-08-05T09:11:51.156Z,784.00
2022-08-05T09:12:35.691Z,716.00
2022-08-05T09:14:01.171Z,728.00
2022-08-05T09:15:05.823Z,756.00
2022-08-05T09:15:36.789Z,696.00
2022-08-05T09:16:35.361Z,652.00
2022-08-05T09:17:42.422Z,656.00
2022-08-05T09:18:36.490Z,692.00
2022-08-05T09:19:36.392Z,668.00
2022-08-05T09:20:37.338Z,680.00
2022-08-05T09:22:22.941Z,828.00
2022-08-05T09:22:36.677Z,1020.00
2022-08-05T09:23:37.478Z,932.00
2022-08-05T09:24:35.745Z,936.00
2022-08-05T09:26:01.064Z,932.00
2022-08-05T09:28:21.325Z,956.00
2022-08-05T09:29:30.930Z,864.00
2022-08-05T09:32:40.352Z,696.00
2022-08-05T09:34:11.609Z,764.00
2022-08-05T09:35:12.313Z,748.00
2022-08-05T09:36:16.682Z,756.00
2022-08-05T09:37:15.100Z,780.00
2022-08-05T09:38:18.228Z,788.00
2022-08-05T09:39:18.553Z,808.00
2022-08-05T09:40:12.496Z,852.00
2022-08-05T09:42:28.238Z,916.00
2022-08-05T09:43:25.744Z,932.00
2022-08-05T09:44:25.721Z,948.00
2022-08-05T09:46:07.421Z,1080.00
2022-08-05T09:46:27.637Z,1220.00
2022-08-05T09:47:25.753Z,1296.00
2022-08-05T09:48:26.885Z,1352.00
2022-08-05T09:49:54.498Z,1324.00
2022-08-05T09:50:38.736Z,1284.00
2022-08-05T09:51:25.638Z,1352.00
2022-08-05T09:52:26.025Z,1488.00
2022-08-05T09:53:54.034Z,1616.00
2022-08-05T09:54:29.331Z,1692.00
2022-08-05T09:55:56.650Z,1732.00
2022-08-05T09:56:25.588Z,1652.00
2022-08-05T09:57:25.565Z,1492.00
2022-08-05T09:58:25.632Z,1352.00
2022-08-05T09:59:27.771Z,1296.00
2022-08-05T10:00:25.502Z,1416.00
2022-08-05T10:01:32.474Z,1456.00
2022-08-05T10:02:25.898Z,1376.00
2022-08-05T10:03:25.496Z,1408.00
2022-08-05T10:04:29.305Z,1440.00
2022-08-05T10:05:26.673Z,1528.00
2022-08-05T10:06:25.464Z,1556.00
2022-08-05T10:07:50.338Z,1616.00
2022-08-05T10:08:42.501Z,1592.00
2022-08-05T10:09:29.215Z,1628.00
2022-08-05T10:10:28.104Z,1728.00
2022-08-05T10:11:31.182Z,1660.00
2022-08-05T10:12:31.516Z,1660.00
2022-08-05T10:13:25.403Z,1676.00
2022-08-05T10:14:26.775Z,1700.00
2022-08-05T10:15:25.580Z,1740.00
2022-08-05T10:16:25.375Z,1856.00
2022-08-05T10:17:37.367Z,2128.00
2022-08-05T10:18:25.371Z,2376.00
2022-08-05T10:20:02.954Z,2432.00
2022-08-05T10:20:25.313Z,2408.00
2022-08-05T10:21:25.314Z,2580.00
2022-08-05T10:22:29.811Z,2808.00
2022-08-05T10:23:55.844Z,2840.00
2022-08-05T10:24:27.089Z,2784.00
2022-08-05T10:25:25.246Z,2732.00
2022-08-05T10:26:32.541Z,2672.00
2022-08-05T10:27:26.288Z,2608.00
2022-08-05T10:28:30.341Z,2584.00
2022-08-05T10:30:06.951Z,2620.00
2022-08-05T10:32:54.068Z,2824.00
2022-08-05T10:33:09.386Z,3104.00
2022-08-05T10:33:19.819Z,3220.00
2022-08-05T10:34:17.186Z,3192.00
2022-08-05T10:35:16.883Z,3108.00
2022-08-05T10:36:16.866Z,3016.00
2022-08-05T10:37:16.858Z,3000.00
2022-08-05T10:38:16.983Z,3064.00
2022-08-05T10:39:24.224Z,3088.00
2022-08-05T10:40:17.909Z,3184.00
2022-08-05T10:41:23.640Z,3212.00
2022-08-05T10:42:18.440Z,3224.00
2022-08-05T10:43:16.862Z,3336.00
2022-08-05T10:44:16.779Z,3260.00
2022-08-05T10:45:23.474Z,3204.00
2022-08-05T10:46:16.735Z,3068.00
2022-08-05T10:47:26.280Z,2952.00
2022-08-05T10:48:29.848Z,2904.00
2022-08-05T10:49:17.104Z,2984.00
2022-08-05T10:50:31.692Z,3152.00
2022-08-05T10:51:21.861Z,3284.00
2022-08-05T10:52:16.726Z,3288.00
2022-08-05T10:53:17.500Z,3296.00
2022-08-05T10:54:28.301Z,3060.00
2022-08-05T10:55:18.512Z,2980.00
2022-08-05T10:56:25.660Z,2964.00
2022-08-05T10:57:16.692Z,3116.00
2022-08-05T10:58:16.648Z,3324.00
2022-08-05T11:00:04.430Z,3268.00
2022-08-05T11:00:20.879Z,3252.00
2022-08-05T11:01:16.565Z,3312.00
2022-08-05T11:02:37.536Z,3424.00
2022-08-05T11:03:24.501Z,3424.00
2022-08-05T11:04:16.543Z,3448.00
2022-08-05T11:05:18.149Z,3536.00
2022-08-05T11:06:17.779Z,3740.00
2022-08-05T11:07:16.778Z,3904.00
2022-08-05T11:08:33.814Z,4068.00
2022-08-05T11:09:17.266Z,4296.00
2022-08-05T11:10:16.527Z,4428.00
2022-08-05T11:11:16.926Z,4396.00
2022-08-05T11:12:16.612Z,4140.00
2022-08-05T11:13:16.456Z,4128.00
2022-08-05T11:14:16.454Z,4100.00
2022-08-05T11:15:20.107Z,4296.00
2022-08-05T11:16:16.448Z,4376.00
2022-08-05T11:17:58.205Z,5020.00
2022-08-05T11:18:16.606Z,4320.00
2022-08-05T11:20:11.466Z,4052.00
2022-08-05T11:20:22.463Z,3996.00
2022-08-05T11:21:16.416Z,3844.00
2022-08-05T11:22:16.413Z,3868.00
2022-08-05T11:23:16.406Z,5572.00
2022-08-05T11:24:30.875Z,5396.00
2022-08-05T11:26:03.200Z,4564.00
2022-08-05T11:26:16.280Z,4412.00
2022-08-05T11:27:16.383Z,4524.00
2022-08-05T11:28:17.147Z,5456.00
2022-08-05T11:29:16.382Z,4500.00
2022-08-05T11:30:16.246Z,4264.00
2022-08-05T11:31:54.518Z,4404.00
2022-08-05T11:32:16.342Z,4068.00
2022-08-05T11:33:21.245Z,3980.00
2022-08-05T11:34:18.988Z,3944.00
2022-08-05T11:35:16.243Z,4780.00
2022-08-05T11:36:16.273Z,4280.00
2022-08-05T11:38:26.563Z,3688.00
2022-08-05T11:38:45.482Z,3488.00
2022-08-05T11:39:16.281Z,3520.00
2022-08-05T11:40:18.265Z,4560.00
2022-08-05T11:41:54.689Z,3596.00
2022-08-05T11:42:18.194Z,3320.00
2022-08-05T11:43:16.119Z,3160.00
2022-08-05T11:44:21.528Z,3648.00
2022-08-05T11:46:14.589Z,4916.00
2022-08-05T11:46:32.497Z,4140.00
2022-08-05T11:47:21.534Z,3956.00
2022-08-05T11:48:16.045Z,4020.00
2022-08-05T11:49:16.015Z,4540.00
2022-08-05T11:50:16.017Z,5308.00
2022-08-05T11:51:43.696Z,4428.00
2022-08-05T11:52:16.013Z,4612.00
2022-08-05T11:53:15.993Z,3932.00
2022-08-05T11:54:15.970Z,3796.00
2022-08-05T11:55:15.961Z,3444.00
2022-08-05T11:56:15.970Z,3316.00
2022-08-05T11:57:24.724Z,3004.00
2022-08-05T11:58:17.331Z,2792.00
2022-08-05T11:59:15.912Z,2588.00
2022-08-05T12:00:15.942Z,2588.00
2022-08-05T12:01:19.139Z,2528.00
2022-08-05T12:02:29.855Z,2432.00
2022-08-05T12:03:15.956Z,2368.00
2022-08-05T12:04:15.874Z,2276.00
2022-08-05T12:05:18.365Z,2180.00
2022-08-05T12:06:15.852Z,2112.00
2022-08-05T12:07:15.911Z,2096.00
2022-08-05T12:08:18.138Z,2124.00
2022-08-05T12:09:20.051Z,2136.00
2022-08-05T12:10:15.802Z,2176.00
2022-08-05T12:11:20.204Z,2236.00
2022-08-05T12:12:15.788Z,2284.00
2022-08-05T12:13:18.897Z,2284.00
2022-08-05T12:14:15.763Z,2332.00
2022-08-05T12:15:16.800Z,2484.00
2022-08-05T12:16:15.875Z,2708.00
2022-08-05T12:18:02.580Z,2936.00
2022-08-05T12:18:16.054Z,3104.00
2022-08-05T12:20:27.017Z,3172.00
2022-08-05T12:20:38.097Z,3248.00
2022-08-05T12:21:15.686Z,3260.00
2022-08-05T12:22:20.015Z,3400.00
2022-08-05T12:23:15.717Z,3448.00
2022-08-05T12:24:17.164Z,3532.00
2022-08-05T12:25:15.620Z,3560.00
2022-08-05T12:26:15.662Z,3548.00
2022-08-05T12:27:32.901Z,3616.00
2022-08-05T12:28:15.835Z,3804.00
2022-08-05T12:29:16.300Z,3944.00
2022-08-05T12:30:15.750Z,4004.00
2022-08-05T12:31:23.777Z,3928.00
2022-08-05T12:32:15.584Z,3852.00
2022-08-05T12:33:27.028Z,3668.00
2022-08-05T12:34:21.262Z,3560.00
2022-08-05T12:35:16.841Z,3272.00
2022-08-05T12:36:15.531Z,3240.00
2022-08-05T12:37:17.584Z,3492.00
2022-08-05T12:38:15.506Z,4664.00
2022-08-05T12:39:15.543Z,4192.00
2022-08-05T12:40:20.671Z,5516.00
2022-08-05T12:41:16.140Z,4036.00
2022-08-05T12:42:15.451Z,3560.00
2022-08-05T12:43:20.556Z,4816.00
2022-08-05T12:44:28.501Z,5568.00
2022-08-05T12:45:15.513Z,4440.00
2022-08-05T12:46:15.381Z,3840.00
2022-08-05T12:47:17.102Z,3300.00
2022-08-05T12:48:27.773Z,5040.00